Time;durP1;ratioP1;P1;durP2;ratioP2;P2;SDS_P1;SDS_P2;PMS_P1;PMS_P2;Temp;Humidity;BMP_temperature;BMP_pressure;BME280_temperature;BME280_humidity;BME280_pressure;Samples;Min_cycle;Max_cycle;Signal;HPM_P1;HPM_P2
2021/08/15 00:00:54;;;;;;;;;19.25;18.00;;;;;24.07;43.41;101343.72;5062685;28;45315;-59
2021/08/15 00:03:19;;;;;;;;;21.00;16.25;;;;;24.02;43.09;101351.16;5062042;28;45292;-59
2021/08/15 00:05:45;;;;;;;;;18.00;16.75;;;;;23.96;43.21;101352.47;5061243;28;46290;-60
2021/08/15 00:08:10;;;;;;;;;17.75;16.50;;;;;23.91;43.95;101349.31;5062311;28;45445;-59
2021/08/15 00:10:38;;;;;;;;;23.00;16.25;;;;;23.86;43.97;101341.72;5062474;28;45532;-59
2021/08/15 00:13:04;;;;;;;;;19.25;15.25;;;;;23.83;45.59;101335.78;5062317;28;45278;-58
2021/08/15 00:15:29;;;;;;;;;14.25;14.00;;;;;23.73;45.29;101335.59;5062285;28;45580;-59
2021/08/15 00:17:54;;;;;;;;;14.50;14.50;;;;;23.65;45.66;101340.63;5061825;28;45512;-59
2021/08/15 00:20:19;;;;;;;;;16.00;14.75;;;;;23.65;45.38;101336.16;5062033;28;45529;-59
2021/08/15 00:22:45;;;;;;;;;13.75;10.25;;;;;23.63;46.17;101337.25;5062202;28;45458;-61
2021/08/15 00:25:13;;;;;;;;;15.25;14.25;;;;;23.55;46.04;101332.44;5062356;28;46406;-62
2021/08/15 00:27:38;;;;;;;;;16.00;12.50;;;;;23.53;46.45;101330.84;5062056;28;45606;-62
2021/08/15 00:30:05;;;;;;;;;15.00;13.75;;;;;23.52;46.72;101337.97;5062216;28;45504;-64
2021/08/15 00:32:31;;;;;;;;;16.50;14.50;;;;;23.51;46.16;101330.13;5061055;28;45321;-62
2021/08/15 00:34:56;;;;;;;;;15.75;13.25;;;;;23.50;46.10;101323.13;5061580;28;46184;-62
2021/08/15 00:37:22;;;;;;;;;15.25;13.00;;;;;23.49;46.12;101326.75;5061991;28;45382;-61
2021/08/15 00:39:48;;;;;;;;;12.00;11.00;;;;;23.46;46.38;101322.50;5059871;28;45357;-60
2021/08/15 00:42:13;;;;;;;;;18.50;13.75;;;;;23.45;46.75;101326.13;5061565;28;45417;-62
2021/08/15 00:44:39;;;;;;;;;16.00;12.00;;;;;23.45;46.40;101323.47;5062018;28;45390;-61
2021/08/15 00:47:06;;;;;;;;;13.25;12.00;;;;;23.43;46.23;101322.72;5061338;28;45179;-62
2021/08/15 00:49:32;;;;;;;;;17.75;13.50;;;;;23.42;46.65;101325.47;5062022;28;45368;-62
2021/08/15 00:51:57;;;;;;;;;13.00;11.50;;;;;23.38;46.68;101332.81;5060189;28;45497;-62
2021/08/15 00:54:22;;;;;;;;;13.00;12.25;;;;;23.31;46.77;101337.72;5061793;28;46294;-62
2021/08/15 00:56:54;;;;;;;;;21.75;15.50;;;;;23.29;46.67;101338.78;5060122;28;45314;-62
2021/08/15 00:59:20;;;;;;;;;13.25;13.25;;;;;23.27;47.02;101322.97;5061957;28;45504;-62
2021/08/15 01:01:49;;;;;;;;;16.00;11.75;;;;;23.25;46.85;101322.25;5061211;28;45334;-61
2021/08/15 01:04:15;;;;;;;;;14.75;10.00;;;;;23.26;46.94;101325.75;5061491;28;45567;-62
2021/08/15 01:06:40;;;;;;;;;13.00;11.00;;;;;23.20;47.30;101316.41;5061617;28;45425;-62
2021/08/15 01:09:06;;;;;;;;;12.25;8.25;;;;;23.19;47.45;101321.81;5076913;28;45244;-61
2021/08/15 01:11:33;;;;;;;;;12.50;9.50;;;;;23.10;46.92;101320.66;5061408;28;45332;-62
2021/08/15 01:14:05;;;;;;;;;8.75;8.75;;;;;23.02;46.61;101315.03;5059665;28;47178;-63
2021/08/15 01:16:31;;;;;;;;;8.75;8.25;;;;;22.97;46.96;101315.38;5058581;28;45368;-63
2021/08/15 01:18:56;;;;;;;;;7.75;7.75;;;;;;;;5059667;28;45381;-63
2021/08/15 01:21:22;;;;;;;;;11.00;8.00;;;;;22.88;47.90;101301.94;5060938;28;45207;-63
2021/08/15 01:23:47;;;;;;;;;11.00;8.50;;;;;22.85;48.31;101300.34;5061075;28;45280;-63
2021/08/15 01:26:15;;;;;;;;;10.25;8.50;;;;;22.86;48.24;101296.75;5060314;28;45218;-63
2021/08/15 01:28:41;;;;;;;;;9.75;9.25;;;;;22.84;48.46;101301.31;5060627;28;45686;-63
2021/08/15 01:31:08;;;;;;;;;10.25;9.00;;;;;22.80;48.39;101299.75;5060123;28;45429;-63
2021/08/15 01:33:36;;;;;;;;;13.50;10.00;;;;;22.75;48.70;101294.78;5060001;28;45349;-63
2021/08/15 01:36:03;;;;;;;;;10.00;6.75;;;;;22.74;49.10;101294.91;5050842;28;45580;-63
2021/08/15 01:38:31;;;;;;;;;9.25;7.50;;;;;22.70;49.47;101296.94;5060094;28;45177;-61
2021/08/15 01:40:57;;;;;;;;;8.50;6.75;;;;;22.71;49.70;101303.91;5060873;28;45523;-61
2021/08/15 01:43:24;;;;;;;;;9.00;7.50;;;;;22.69;49.91;101305.81;5060648;28;45314;-61
2021/08/15 01:45:50;;;;;;;;;8.00;7.00;;;;;22.63;50.50;101305.41;5060360;28;45461;-61
2021/08/15 01:48:16;;;;;;;;;9.25;7.00;;;;;22.58;50.51;101295.09;5061142;28;45284;-60
2021/08/15 01:50:41;;;;;;;;;8.75;7.00;;;;;22.54;50.28;101290.13;5061028;28;45478;-60
2021/08/15 01:53:12;;;;;;;;;8.00;6.75;;;;;22.55;50.82;101290.03;5059779;28;46289;-60
2021/08/15 01:55:40;;;;;;;;;10.75;8.25;;;;;22.52;50.83;101290.25;5048514;28;45901;-60
2021/08/15 01:58:06;;;;;;;;;14.25;8.50;;;;;22.49;50.97;101287.81;5060713;28;45429;-60
2021/08/15 02:00:32;;;;;;;;;13.25;8.25;;;;;22.49;50.87;101290.47;5060784;28;45350;-60
2021/08/15 02:02:57;;;;;;;;;9.25;8.50;;;;;22.45;51.14;101292.47;5060691;28;45254;-60
2021/08/15 02:05:22;;;;;;;;;12.50;9.50;;;;;22.40;51.30;101285.78;5060938;28;45160;-60
2021/08/15 02:07:54;;;;;;;;;10.00;7.00;;;;;22.40;51.60;101285.78;5060677;28;45485;-60
2021/08/15 02:10:19;;;;;;;;;8.50;8.00;;;;;22.39;51.81;101279.63;5061190;28;45385;-62
2021/08/15 02:12:45;;;;;;;;;11.75;8.75;;;;;22.37;51.31;101278.03;5060480;28;46099;-60
2021/08/15 02:15:10;;;;;;;;;10.00;7.50;;;;;22.31;51.73;101265.22;5060479;28;45144;-60
2021/08/15 02:17:36;;;;;;;;;9.75;9.00;;;;;22.33;51.65;101273.91;5060177;28;45441;-60
2021/08/15 02:20:01;;;;;;;;;11.00;8.75;;;;;22.30;51.67;101269.69;5060689;28;45493;-60
2021/08/15 02:22:26;;;;;;;;;8.50;7.25;;;;;22.28;51.64;101265.44;5060422;28;45211;-60
2021/08/15 02:24:52;;;;;;;;;8.25;8.00;;;;;22.28;51.89;101268.94;5060641;28;45168;-60
2021/08/15 02:27:17;;;;;;;;;12.50;8.75;;;;;22.27;51.87;101266.41;5060399;28;45624;-61
2021/08/15 02:29:43;;;;;;;;;12.50;10.00;;;;;22.26;52.29;101262.91;5060543;28;45421;-61
2021/08/15 02:32:08;;;;;;;;;8.25;8.00;;;;;22.26;52.20;101267.34;5060199;28;45323;-61
2021/08/15 02:34:33;;;;;;;;;10.00;8.50;;;;;22.25;52.48;101255.91;5060249;28;45261;-61
2021/08/15 02:36:58;;;;;;;;;12.75;10.00;;;;;22.25;52.34;101258.56;5060116;28;45482;-61
2021/08/15 02:39:24;;;;;;;;;12.00;8.00;;;;;22.26;52.13;101251.47;5060416;28;46348;-61
2021/08/15 02:41:49;;;;;;;;;14.75;6.75;;;;;22.24;52.23;101248.94;5060235;28;46639;-61
2021/08/15 02:44:14;;;;;;;;;11.50;9.50;;;;;22.22;52.42;101248.16;5060271;28;45302;-61
2021/08/15 02:46:40;;;;;;;;;14.25;10.75;;;;;22.20;52.75;101246.56;5059860;28;45461;-61
2021/08/15 02:49:05;;;;;;;;;12.25;11.25;;;;;22.16;52.77;101246.78;5060045;28;45370;-61
2021/08/15 02:51:31;;;;;;;;;13.50;11.00;;;;;22.15;52.87;101238.94;5060128;28;45301;-60
2021/08/15 02:53:57;;;;;;;;;9.50;8.00;;;;;22.11;53.14;101237.47;5059935;28;45248;-59
2021/08/15 02:56:22;;;;;;;;;12.75;9.00;;;;;22.08;52.85;101237.66;5060001;28;45280;-59
2021/08/15 02:58:48;;;;;;;;;9.00;7.25;;;;;22.05;53.47;101241.38;5059879;28;45458;-59
2021/08/15 03:01:13;;;;;;;;;9.50;8.50;;;;;22.00;53.74;101230.19;5059717;28;45894;-59
2021/08/15 03:03:38;;;;;;;;;9.00;8.00;;;;;21.98;53.90;101232.09;5075257;27;45345;-59
2021/08/15 03:06:04;;;;;;;;;8.75;7.75;;;;;21.97;53.92;101230.41;5059927;28;45436;-59
2021/08/15 03:08:29;;;;;;;;;11.75;8.50;;;;;21.94;53.70;101232.41;5049266;28;45257;-59
2021/08/15 03:10:54;;;;;;;;;8.50;7.00;;;;;21.89;55.26;101224.78;5059555;28;46127;-59
2021/08/15 03:13:20;;;;;;;;;6.75;6.25;;;;;21.83;54.66;101230.50;5060004;28;45173;-59
2021/08/15 03:15:45;;;;;;;;;9.00;8.25;;;;;21.80;54.55;101225.41;5059418;28;45262;-59
2021/08/15 03:18:14;;;;;;;;;11.25;9.00;;;;;21.78;54.42;101219.34;5059658;28;45468;-59
2021/08/15 03:20:39;;;;;;;;;9.25;8.50;;;;;21.77;54.43;101209.72;5059983;28;45463;-59
2021/08/15 03:23:04;;;;;;;;;7.25;7.00;;;;;21.77;54.63;101215.03;5059927;28;45230;-59
2021/08/15 03:25:30;;;;;;;;;12.00;11.00;;;;;21.74;54.81;101210.78;5059605;28;45419;-59
2021/08/15 03:27:55;;;;;;;;;10.25;8.50;;;;;21.74;54.97;101209.94;5059602;28;45297;-59
2021/08/15 03:30:21;;;;;;;;;11.00;10.00;;;;;21.74;54.69;101215.22;5059084;28;45447;-60
2021/08/15 03:32:46;;;;;;;;;10.50;8.25;;;;;21.70;55.61;101219.88;5059607;28;45408;-59
2021/08/15 03:35:11;;;;;;;;;11.25;10.25;;;;;21.66;54.96;101222.84;5059447;28;45302;-59
2021/08/15 03:37:37;;;;;;;;;12.00;9.00;;;;;21.63;55.30;101218.59;5058343;28;45462;-59
2021/08/15 03:40:02;;;;;;;;;11.00;9.00;;;;;21.56;54.94;101207.56;5059242;28;45543;-59
2021/08/15 03:42:27;;;;;;;;;11.00;8.25;;;;;21.60;55.42;101217.94;5066550;28;45472;-59
2021/08/15 03:44:53;;;;;;;;;14.00;11.25;;;;;21.57;55.72;101221.63;5063158;28;45391;-59
2021/08/15 03:47:18;;;;;;;;;17.50;10.75;;;;;21.54;55.89;101209.47;5059122;28;45409;-59
2021/08/15 03:49:43;;;;;;;;;10.00;7.00;;;;;21.54;56.00;101208.63;5059369;28;46380;-59
2021/08/15 03:52:09;;;;;;;;;10.75;9.25;;;;;21.52;55.83;101216.66;5059218;28;45363;-59
2021/08/15 03:54:34;;;;;;;;;10.00;9.25;;;;;21.51;56.20;101214.09;5059483;28;45487;-59
2021/08/15 03:56:59;;;;;;;;;11.50;9.25;;;;;21.49;56.55;101206.28;5058765;28;45997;-59
2021/08/15 03:59:25;;;;;;;;;13.75;8.00;;;;;21.48;55.92;101207.22;5059474;28;46433;-60
2021/08/15 04:01:50;;;;;;;;;9.50;9.50;;;;;21.49;56.51;101208.06;5059256;28;45193;-62
2021/08/15 04:04:15;;;;;;;;;12.50;10.50;;;;;21.47;56.69;101207.34;5059316;28;45283;-64
2021/08/15 04:06:42;;;;;;;;;9.75;8.25;;;;;21.47;56.53;101207.34;5058967;28;45587;-64
2021/08/15 04:09:07;;;;;;;;;11.00;10.00;;;;;21.44;56.86;101210.19;5059146;28;47162;-62
2021/08/15 04:11:32;;;;;;;;;11.00;10.00;;;;;21.44;56.65;101212.81;5058846;28;45150;-62
2021/08/15 04:13:58;;;;;;;;;9.50;9.00;;;;;21.41;56.93;101203.25;5059478;28;45301;-63
2021/08/15 04:16:23;;;;;;;;;16.25;13.50;;;;;21.40;57.02;101201.56;5060274;28;45185;-62
2021/08/15 04:18:48;;;;;;;;;13.75;12.50;;;;;21.37;57.43;101207.06;5062204;28;45394;-60
2021/08/15 04:21:14;;;;;;;;;12.00;9.75;;;;;21.38;57.30;101199.97;5062403;28;45199;-64
2021/08/15 04:23:39;;;;;;;;;14.00;11.00;;;;;21.35;57.25;101197.53;5062614;28;45198;-62
2021/08/15 04:26:04;;;;;;;;;11.75;11.75;;;;;21.32;57.66;101185.38;5062722;28;45704;-61
2021/08/15 04:28:30;;;;;;;;;10.25;9.00;;;;;21.29;57.99;101182.94;5062224;28;46357;-61
2021/08/15 04:30:55;;;;;;;;;16.50;11.75;;;;;21.21;57.38;101175.44;5061841;28;45456;-61
2021/08/15 04:33:24;;;;;;;;;12.25;10.25;;;;;21.24;58.13;101192.97;5062270;28;45353;-61
2021/08/15 04:35:49;;;;;;;;;14.25;11.00;;;;;21.22;58.35;101190.41;5061938;28;45369;-61
2021/08/15 04:38:15;;;;;;;;;9.50;9.00;;;;;21.17;58.79;101188.97;5062025;28;46318;-61
2021/08/15 04:40:40;;;;;;;;;15.50;9.75;;;;;21.14;59.63;101189.19;5061995;28;45168;-61
2021/08/15 04:43:06;;;;;;;;;10.00;9.50;;;;;21.03;59.92;101173.19;5062158;28;45322;-61
2021/08/15 04:45:31;;;;;;;;;13.00;7.50;;;;;21.10;59.93;101190.31;5061559;28;45505;-59
2021/08/15 04:47:56;;;;;;;;;11.25;10.00;;;;;21.09;59.68;101181.56;5061773;28;45375;-61
2021/08/15 04:50:22;;;;;;;;;12.50;9.25;;;;;21.06;59.81;101179.09;5061838;28;45302;-59
2021/08/15 04:52:47;;;;;;;;;9.75;8.75;;;;;21.07;59.47;101186.09;5062074;28;45416;-61
2021/08/15 04:55:13;;;;;;;;;14.50;8.75;;;;;21.07;59.72;101185.25;5061770;28;45266;-62
2021/08/15 04:57:39;;;;;;;;;10.50;9.75;;;;;21.06;59.73;101186.19;5061744;28;46327;-62
2021/08/15 05:00:05;;;;;;;;;8.00;6.50;;;;;21.07;59.61;101180.81;5061400;28;45176;-62
2021/08/15 05:02:31;;;;;;;;;10.00;9.50;;;;;21.10;59.49;101183.25;5060464;28;45289;-59
2021/08/15 05:04:56;;;;;;;;;12.75;11.00;;;;;21.11;59.81;101171.72;5061381;28;45265;-60
2021/08/15 05:07:21;;;;;;;;;8.00;8.00;;;;;21.11;59.76;101174.38;5061719;28;45297;-61
2021/08/15 05:09:47;;;;;;;;;11.25;10.75;;;;;21.11;59.62;101174.38;5061598;28;45310;-60
2021/08/15 05:12:12;;;;;;;;;14.50;10.50;;;;;21.12;59.84;101183.13;5061609;28;45413;-58
2021/08/15 05:14:37;;;;;;;;;12.50;10.25;;;;;21.13;59.80;101182.19;5061463;28;45409;-61
2021/08/15 05:17:03;;;;;;;;;12.75;8.25;;;;;21.13;60.07;101184.84;5060972;28;46319;-61
2021/08/15 05:19:30;;;;;;;;;14.75;11.50;;;;;21.12;59.76;101176.06;5061142;28;45302;-60
2021/08/15 05:21:56;;;;;;;;;10.75;9.00;;;;;21.14;60.12;101182.09;5062160;28;45272;-59
2021/08/15 05:24:21;;;;;;;;;17.25;10.75;;;;;21.17;60.30;101183.69;5061371;28;45518;-60
2021/08/15 05:26:46;;;;;;;;;13.25;11.00;;;;;21.18;60.30;101175.66;5061132;28;47251;-59
2021/08/15 05:29:12;;;;;;;;;13.00;9.25;;;;;21.23;60.47;101183.31;5061432;28;45167;-58
2021/08/15 05:31:37;;;;;;;;;16.00;10.00;;;;;21.24;60.07;101175.31;5061328;28;45413;-58
2021/08/15 05:34:02;;;;;;;;;10.25;7.50;;;;;21.25;60.46;101178.81;5061101;28;45215;-62
2021/08/15 05:36:28;;;;;;;;;9.75;8.00;;;;;21.28;60.42;101183.88;5061033;28;46724;-61
2021/08/15 05:38:53;;;;;;;;;11.25;8.75;;;;;21.32;60.34;101180.09;5061114;28;45211;-60
2021/08/15 05:41:18;;;;;;;;;11.00;11.00;;;;;21.34;61.00;101180.84;5061332;28;45412;-60
2021/08/15 05:43:44;;;;;;;;;12.25;9.50;;;;;21.33;60.80;101181.78;5061214;28;45271;-60
2021/08/15 05:46:09;;;;;;;;;11.75;10.00;;;;;21.28;61.93;101181.25;5060684;28;45447;-62
2021/08/15 05:48:34;;;;;;;;;12.75;11.50;;;;;21.21;61.84;101178.09;5060809;28;45153;-62
2021/08/15 05:51:02;;;;;;;;;8.50;6.50;;;;;21.20;61.39;101179.03;5061175;28;45172;-64
2021/08/15 05:53:27;;;;;;;;;12.25;9.75;;;;;21.25;61.53;101179.66;5060796;28;46191;-63
2021/08/15 05:55:52;;;;;;;;;11.25;10.50;;;;;21.29;61.79;101177.66;5061088;28;46094;-63
2021/08/15 05:58:18;;;;;;;;;15.50;10.50;;;;;21.33;61.17;101168.56;5061068;28;45349;-63
2021/08/15 06:00:43;;;;;;;;;11.00;8.75;;;;;21.38;60.86;101177.03;5060958;28;45364;-60
2021/08/15 06:03:08;;;;;;;;;4.00;4.00;;;;;21.42;61.09;101177.66;5060691;28;45352;-64
2021/08/15 06:05:33;;;;;;;;;8.00;6.75;;;;;21.47;60.88;101171.16;5060874;28;45517;-61
2021/08/15 06:07:59;;;;;;;;;11.75;10.75;;;;;21.54;60.25;101177.72;5060575;28;45439;-61
2021/08/15 06:10:24;;;;;;;;;11.75;10.25;;;;;21.62;60.27;101182.50;5060895;28;45508;-63
2021/08/15 06:12:49;;;;;;;;;7.00;7.00;;;;;21.69;59.86;101186.44;5060668;28;45384;-63
2021/08/15 06:15:15;;;;;;;;;13.00;8.50;;;;;21.74;59.29;101186.97;5059730;28;45386;-62
2021/08/15 06:17:41;;;;;;;;;11.25;7.75;;;;;21.78;59.38;101179.69;5060113;28;45298;-61
2021/08/15 06:20:08;;;;;;;;;12.25;8.50;;;;;21.82;59.47;101186.44;5060897;28;45227;-62
2021/08/15 06:22:45;;;;;;;;;13.25;10.25;;;;;21.82;59.28;101195.25;5060597;28;45193;-64
2021/08/15 06:25:12;;;;;;;;;7.00;6.00;;;;;21.83;58.98;101182.88;5060495;28;46442;-64
2021/08/15 06:27:43;;;;;;;;;7.25;7.25;;;;;21.88;59.09;101177.28;5057088;28;45685;-65
2021/08/15 06:30:10;;;;;;;;;9.00;7.25;;;;;21.95;58.56;101191.78;5050303;28;45441;-62
2021/08/15 06:32:49;;;;;;;;;10.50;9.75;;;;;21.98;58.24;101191.56;5052992;28;45468;-62
2021/08/15 06:35:16;;;;;;;;;11.00;8.50;;;;;22.01;58.69;101199.28;5053481;28;45856;-63
2021/08/15 06:37:42;;;;;;;;;13.25;8.75;;;;;22.05;58.07;101193.75;5049878;28;45602;-64
2021/08/15 06:40:08;;;;;;;;;8.00;7.00;;;;;22.10;58.23;101190.75;5050872;28;45363;-62
2021/08/15 06:42:33;;;;;;;;;10.75;8.25;;;;;22.16;58.27;101187.69;5051221;28;45371;-63
2021/08/15 06:44:58;;;;;;;;;9.25;7.00;;;;;22.22;58.01;101183.75;5055639;28;46255;-63
2021/08/15 06:47:24;;;;;;;;;9.00;7.50;;;;;22.29;57.50;101180.59;5053642;28;45463;-64
2021/08/15 06:49:49;;;;;;;;;10.00;6.75;;;;;22.36;57.52;101173.91;5050403;28;45418;-63
2021/08/15 06:52:14;;;;;;;;;12.50;9.25;;;;;22.40;57.29;101163.94;5055020;28;45375;-63
2021/08/15 06:54:40;;;;;;;;;7.75;7.75;;;;;22.52;57.32;101176.34;5051579;28;45864;-63
2021/08/15 06:57:05;;;;;;;;;10.75;9.00;;;;;22.59;57.07;101176.75;5051407;28;45604;-63
2021/08/15 06:59:30;;;;;;;;;9.25;6.50;;;;;22.65;56.80;101179.81;5050476;28;45379;-63
2021/08/15 07:01:56;;;;;;;;;8.50;8.25;;;;;22.74;56.82;101179.16;5053002;28;45440;-63
2021/08/15 07:04:21;;;;;;;;;8.25;7.25;;;;;22.80;56.29;101175.22;5049363;28;45442;-62
2021/08/15 07:06:46;;;;;;;;;9.50;8.00;;;;;22.90;56.23;101176.28;5051855;28;45337;-62
2021/08/15 07:09:12;;;;;;;;;8.25;6.50;;;;;22.94;55.95;101176.91;5050273;28;45464;-62
2021/08/15 07:11:37;;;;;;;;;12.25;9.50;;;;;23.05;56.18;101185.78;5055153;28;45457;-62
2021/08/15 07:14:02;;;;;;;;;11.75;7.75;;;;;23.15;55.27;101185.97;5049973;28;45443;-62
2021/08/15 07:16:27;;;;;;;;;7.00;7.00;;;;;23.17;55.34;101189.34;5049365;28;45323;-62
2021/08/15 07:18:53;;;;;;;;;6.25;6.25;;;;;23.26;55.47;101199.28;5049808;28;45261;-62
2021/08/15 07:21:19;;;;;;;;;11.00;9.00;;;;;23.37;55.07;101193.19;5051412;28;45903;-61
2021/08/15 07:23:44;;;;;;;;;8.50;8.25;;;;;23.38;54.99;101193.06;5050514;28;47088;-61
2021/08/15 07:26:09;;;;;;;;;10.25;8.00;;;;;23.37;54.62;101191.38;5050507;28;45305;-61
2021/08/15 07:28:35;;;;;;;;;9.25;7.00;;;;;23.40;54.63;101189.44;5049658;28;45391;-63
2021/08/15 07:31:00;;;;;;;;;10.75;8.50;;;;;23.37;54.60;101180.75;5050720;28;45600;-62
2021/08/15 07:33:25;;;;;;;;;12.50;10.00;;;;;23.37;54.70;101188.72;5049487;28;47050;-63
2021/08/15 07:35:50;;;;;;;;;10.50;10.25;;;;;23.44;54.02;101189.13;5052092;28;45482;-64
2021/08/15 07:38:16;;;;;;;;;8.25;7.50;;;;;23.56;53.98;101182.06;5049418;28;45294;-64
2021/08/15 07:40:41;;;;;;;;;8.50;6.00;;;;;23.65;53.30;101182.25;5052518;28;45410;-64
2021/08/15 07:43:07;;;;;;;;;8.25;8.00;;;;;23.72;52.94;101184.44;5051446;28;46553;-63
2021/08/15 07:45:33;;;;;;;;;11.25;7.25;;;;;23.83;52.78;101174.72;5051659;28;46378;-64
2021/08/15 07:48:00;;;;;;;;;6.75;6.25;;;;;24.03;52.53;101169.66;5050699;28;46419;-63
2021/08/15 07:50:28;;;;;;;;;8.25;7.50;;;;;24.12;52.26;101174.28;5052754;28;45394;-63
2021/08/15 07:52:54;;;;;;;;;7.50;7.25;;;;;24.20;52.02;101177.16;5060636;28;47251;-63
2021/08/15 07:55:19;;;;;;;;;9.25;6.75;;;;;24.28;51.75;101180.09;5062733;28;45496;-61
2021/08/15 07:57:45;;;;;;;;;9.25;7.00;;;;;24.34;51.17;101176.97;5062819;28;45302;-62
2021/08/15 08:00:11;;;;;;;;;10.50;9.50;;;;;24.43;51.45;101178.09;5062326;28;45188;-64
2021/08/15 08:02:36;;;;;;;;;11.00;9.00;;;;;24.55;50.48;101175.28;5062495;28;46442;-63
2021/08/15 08:05:02;;;;;;;;;7.50;6.50;;;;;24.65;50.68;101171.91;5062652;28;45274;-67
2021/08/15 08:07:27;;;;;;;;;8.50;7.50;;;;;24.70;50.55;101165.25;5061464;28;45266;-64
2021/08/15 08:09:53;;;;;;;;;13.50;9.00;;;;;24.79;50.21;101168.97;5062845;28;45218;-68
2021/08/15 08:12:20;;;;;;;;;10.00;9.00;;;;;24.85;49.42;101171.16;5062543;28;46024;-65
2021/08/15 08:14:46;;;;;;;;;12.00;9.00;;;;;24.85;49.97;101168.50;5062367;28;45591;-61
2021/08/15 08:17:13;;;;;;;;;8.50;8.00;;;;;24.88;49.60;101162.94;5052646;28;45235;-60
2021/08/15 08:19:40;;;;;;;;;10.25;9.00;;;;;24.93;49.93;101158.06;5053434;28;45462;-60
2021/08/15 08:22:05;;;;;;;;;8.00;7.00;;;;;25.04;49.69;101157.25;5052252;28;47000;-62
2021/08/15 08:24:31;;;;;;;;;9.75;8.00;;;;;25.19;48.84;101155.97;5053815;28;45279;-61
2021/08/15 08:26:57;;;;;;;;;10.25;9.75;;;;;25.32;48.95;101159.31;5052169;28;45248;-61
2021/08/15 08:29:23;;;;;;;;;11.00;8.50;;;;;25.36;48.58;101160.75;5054665;28;45591;-61
2021/08/15 08:31:48;;;;;;;;;11.25;8.25;;;;;25.51;48.38;101158.63;5052465;28;46110;-61
2021/08/15 08:34:13;;;;;;;;;12.25;9.00;;;;;25.69;48.85;101153.63;5053722;28;45244;-61
2021/08/15 08:36:39;;;;;;;;;10.75;10.00;;;;;25.87;47.86;101164.53;5053454;28;45347;-63
2021/08/15 08:39:04;;;;;;;;;10.25;8.75;;;;;26.00;47.34;101155.34;5054334;28;45272;-63
2021/08/15 08:41:31;;;;;;;;;9.25;7.50;;;;;26.13;47.17;101148.97;5052527;28;46167;-61
2021/08/15 08:43:57;;;;;;;;;10.50;9.00;;;;;26.27;46.94;101151.28;5057871;28;45346;-61
2021/08/15 08:46:25;;;;;;;;;11.75;9.00;;;;;26.30;46.68;101149.19;5055709;28;45334;-60
2021/08/15 08:48:52;;;;;;;;;11.00;8.75;;;;;26.34;45.55;101157.75;5054698;28;45446;-61
2021/08/15 08:51:20;;;;;;;;;9.25;9.25;;;;;26.30;46.30;101151.88;5050227;28;46322;-60
2021/08/15 08:53:49;;;;;;;;;15.00;13.75;;;;;26.42;46.26;101151.78;5055868;28;45846;-61
2021/08/15 08:56:16;;;;;;;;;7.75;7.75;;;;;26.53;46.10;101155.22;5052399;28;45350;-60
2021/08/15 08:58:41;;;;;;;;;9.25;8.25;;;;;26.57;45.62;101153.09;5066503;27;45382;-61
2021/08/15 09:01:06;;;;;;;;;14.75;12.75;;;;;26.65;45.86;101145.28;5052140;28;46766;-60
2021/08/15 09:03:32;;;;;;;;;8.00;7.75;;;;;26.67;45.14;101143.34;5055069;28;45349;-62
2021/08/15 09:05:57;;;;;;;;;11.25;9.75;;;;;26.65;44.88;101145.28;5054368;28;45219;-60
2021/08/15 09:08:28;;;;;;;;;6.00;4.75;;;;;26.64;44.90;101138.28;5061591;28;45302;-65
2021/08/15 09:11:09;;;;;;;;;11.00;8.75;;;;;26.63;44.82;101134.78;5060830;28;47078;-64
2021/08/15 09:13:34;;;;;;;;;10.75;9.50;;;;;26.71;45.28;101134.06;5061552;28;45535;-63
2021/08/15 09:15:59;;;;;;;;;10.25;8.25;;;;;26.88;44.67;101121.91;5059863;28;45231;-63
2021/08/15 09:18:32;;;;;;;;;12.50;10.25;;;;;26.92;44.94;101117.97;5060597;28;45213;-64
2021/08/15 09:20:58;;;;;;;;;15.25;12.00;;;;;27.11;44.59;101119.84;5059903;28;45303;-59
2021/08/15 09:23:30;;;;;;;;;11.25;9.75;;;;;27.31;44.52;101123.38;5060667;28;45303;-67
2021/08/15 09:26:16;;;;;;;;;10.50;9.25;;;;;27.47;44.01;101121.81;5060058;28;45307;-59
2021/08/15 09:28:44;;;;;;;;;15.50;11.25;;;;;27.62;44.00;101113.34;5060507;28;45334;-61
2021/08/15 09:31:25;;;;;;;;;11.25;10.25;;;;;27.81;43.82;101113.34;5059976;28;46466;-60
2021/08/15 09:33:52;;;;;;;;;17.25;12.00;;;;;27.96;43.52;101109.22;5059785;28;45280;-58
2021/08/15 09:36:25;;;;;;;;;14.50;12.00;;;;;28.09;43.20;101106.22;5061357;28;45299;-58
2021/08/15 09:38:55;;;;;;;;;14.50;13.00;;;;;28.25;43.02;101108.28;5059693;28;45285;-59
2021/08/15 09:41:26;;;;;;;;;14.75;13.25;;;;;28.38;42.92;101100.78;5060564;28;46429;-61
2021/08/15 09:44:20;;;;;;;;;11.50;11.50;;;;;28.47;42.35;101105.25;5060637;28;45346;-59
2021/08/15 09:47:03;;;;;;;;;13.00;12.25;;;;;28.57;42.04;101102.50;5057282;28;45214;-59
2021/08/15 09:49:37;;;;;;;;;12.75;12.50;;;;;28.63;42.11;101102.75;5050515;28;45545;-61
2021/08/15 09:52:03;;;;;;;;;20.25;14.75;;;;;28.63;41.89;101099.22;5058429;28;46182;-62
2021/08/15 09:54:30;;;;;;;;;18.75;14.50;;;;;28.59;42.39;101098.69;5059762;28;45651;-62
2021/08/15 09:56:57;;;;;;;;;15.75;11.75;;;;;28.62;42.45;101095.69;5059939;28;45379;-62
2021/08/15 09:59:24;;;;;;;;;17.50;14.50;;;;;28.64;42.59;101092.91;5060457;28;45548;-62
2021/08/15 10:01:51;;;;;;;;;15.00;14.50;;;;;28.69;42.83;101107.50;5059898;28;46340;-60
2021/08/15 10:04:18;;;;;;;;;19.75;16.00;;;;;28.75;42.57;101098.88;5060717;28;45378;-62
2021/08/15 10:06:45;;;;;;;;;18.25;14.25;;;;;28.75;42.01;101092.66;5060219;28;45461;-60
2021/08/15 10:09:11;;;;;;;;;16.00;13.75;;;;;28.75;42.26;101084.66;5060623;28;45210;-61
2021/08/15 10:11:37;;;;;;;;;18.25;16.00;;;;;28.83;42.63;101089.22;5055643;28;45508;-59
2021/08/15 10:14:05;;;;;;;;;16.75;15.00;;;;;28.86;42.65;101089.81;5049875;28;45639;-59
2021/08/15 10:16:35;;;;;;;;;14.00;14.00;;;;;28.94;42.81;101075.66;5052106;28;45349;-60
2021/08/15 10:19:07;;;;;;;;;19.25;17.25;;;;;29.08;42.53;101089.34;5050708;28;45244;-59
2021/08/15 10:21:39;;;;;;;;;15.75;14.75;;;;;29.19;42.62;101080.25;5050770;28;46282;-59
2021/08/15 10:24:10;;;;;;;;;15.50;13.00;;;;;29.21;42.51;101080.91;5057071;28;45272;-59
2021/08/15 10:26:36;;;;;;;;;15.75;14.75;;;;;29.26;42.34;101084.00;5060558;28;45306;-60
2021/08/15 10:29:02;;;;;;;;;15.67;14.33;;;;;29.24;42.08;101079.78;5060239;28;45408;-60
2021/08/15 10:32:14;;;;;;;;;14.25;14.25;;;;;29.22;42.92;101074.56;5060088;28;45345;-60
2021/08/15 10:34:51;;;;;;;;;15.00;13.75;;;;;29.31;42.44;101068.31;5018032;28;45576;-59
2021/08/15 10:37:23;;;;;;;;;14.00;13.75;;;;;29.36;41.66;101065.16;5056399;28;45511;-60
2021/08/15 10:39:49;;;;;;;;;15.00;13.75;;;;;29.46;42.27;101060.59;5060462;28;45336;-58
2021/08/15 10:42:39;;;;;;;;;14.50;11.50;;;;;29.63;42.12;101056.16;5065188;28;46283;-58
2021/08/15 10:45:07;;;;;;;;;13.50;11.75;;;;;29.65;41.30;101043.47;5061940;27;45421;-58
2021/08/15 10:47:33;;;;;;;;;18.75;15.00;;;;;29.63;41.66;101048.09;5059869;28;45355;-59
2021/08/15 10:50:02;;;;;;;;;13.25;13.00;;;;;29.54;41.51;101046.41;5059969;28;45512;-58
2021/08/15 10:52:39;;;;;;;;;14.50;14.00;;;;;29.54;42.52;101038.34;5060084;28;47070;-59
2021/08/15 10:55:19;;;;;;;;;16.00;16.00;;;;;29.76;41.73;101037.81;5059965;28;45456;-59
2021/08/15 10:57:49;;;;;;;;;16.75;15.75;;;;;29.97;41.36;101032.06;5059910;28;45452;-58
2021/08/15 11:00:29;;;;;;;;;14.00;12.00;;;;;30.19;40.36;101025.31;5059561;28;45642;-59
2021/08/15 11:03:12;;;;;;;;;15.25;13.00;;;;;30.26;41.02;101029.03;5059492;28;45325;-59
2021/08/15 11:05:40;;;;;;;;;14.75;13.75;;;;;30.24;39.82;101026.50;5060052;28;45520;-58
2021/08/15 11:08:31;;;;;;;;;9.75;8.75;;;;;30.21;40.24;101025.97;5059797;28;45355;-57
2021/08/15 11:11:08;;;;;;;;;14.25;14.25;;;;;30.07;39.36;101024.78;5059618;28;45445;-58
2021/08/15 11:13:35;;;;;;;;;14.50;12.00;;;;;30.17;39.58;101017.41;5059764;28;46154;-57
2021/08/15 11:16:25;;;;;;;;;9.25;9.25;;;;;30.33;39.02;101022.00;5059150;28;45302;-57